Time;durP1;ratioP1;P1;durP2;ratioP2;P2;SDS_P1;SDS_P2;PMS_P1;PMS_P2;Temp;Humidity;BMP_temperature;BMP_pressure;BME280_temperature;BME280_humidity;BME280_pressure;Samples;Min_cycle;Max_cycle;Signal;HPM_P1;HPM_P2
2022/12/03 00:00:41;;;;;;;56.95;23.55;;;;;;;5.38;100.00;96407.97;5065772;28;20080;-45
2022/12/03 00:03:10;;;;;;;59.35;26.27;;;;;;;5.89;100.00;96405.81;5060348;28;20091;-43
2022/12/03 00:05:39;;;;;;;59.10;25.42;;;;;;;6.30;100.00;96401.84;5065905;28;20075;-43
2022/12/03 00:08:16;;;;;;;60.75;26.13;;;;;;;6.37;100.00;96408.25;5065833;28;20527;-44
2022/12/03 00:10:44;;;;;;;61.45;25.25;;;;;;;6.27;100.00;96407.31;5061909;28;20669;-47
2022/12/03 00:13:13;;;;;;;47.53;22.85;;;;;;;5.39;100.00;96412.22;5064621;28;20076;-45
2022/12/03 00:15:41;;;;;;;55.10;22.13;;;;;;;5.54;100.00;96405.88;5067150;28;20540;-47
2022/12/03 00:18:11;;;;;;;49.90;22.88;;;;;;;5.45;100.00;96417.00;5066691;28;20762;-46
2022/12/03 00:20:39;;;;;;;56.15;22.85;;;;;;;5.69;100.00;96414.34;5065886;28;20087;-44
2022/12/03 00:23:07;;;;;;;55.78;25.83;;;;;;;5.23;100.00;96404.72;5066518;28;20067;-44
2022/12/03 00:25:36;;;;;;;57.13;25.20;;;;;;;5.55;100.00;96401.47;5065408;28;20079;-51
2022/12/03 00:28:04;;;;;;;60.15;25.60;;;;;;;5.41;100.00;96405.94;5065018;28;20722;-44
2022/12/03 00:30:33;;;;;;;56.00;25.10;;;;;;;5.73;100.00;96400.06;5064730;28;20084;-43
2022/12/03 00:33:01;;;;;;;52.47;21.23;;;;;;;5.18;100.00;96405.03;5065876;28;20072;-45
2022/12/03 00:35:30;;;;;;;54.50;23.42;;;;;;;5.32;100.00;96390.94;5060538;28;20080;-48
2022/12/03 00:37:59;;;;;;;58.13;24.33;;;;;;;5.63;100.00;96393.88;5065475;28;20527;-44
2022/12/03 00:40:27;;;;;;;53.60;23.00;;;;;;;5.59;100.00;96392.44;5065539;28;20084;-46
2022/12/03 00:42:55;;;;;;;55.85;24.80;;;;;;;5.09;100.00;96400.47;5062764;28;20068;-43
2022/12/03 00:45:24;;;;;;;55.85;23.98;;;;;;;5.27;100.00;96408.75;5065027;28;20084;-44
2022/12/03 00:47:52;;;;;;;55.20;23.63;;;;;;;5.59;100.00;96395.88;5062803;28;20080;-45
2022/12/03 00:50:20;;;;;;;52.17;21.90;;;;;;;5.62;100.00;96402.69;5065390;28;20088;-43
2022/12/03 00:52:50;;;;;;;51.22;22.15;;;;;;;5.49;100.00;96402.75;5067468;28;20076;-44
2022/12/03 00:55:18;;;;;;;57.00;21.67;;;;;;;5.58;100.00;96390.78;5063581;28;20088;-43
2022/12/03 00:57:47;;;;;;;47.05;20.10;;;;;;;5.28;100.00;96396.50;5060545;28;20076;-46
2022/12/03 01:00:15;;;;;;;51.72;22.00;;;;;;;5.39;100.00;96407.84;5066148;28;20487;-46
2022/12/03 01:02:44;;;;;;;54.97;23.95;;;;;;;5.37;100.00;96412.34;5066169;28;20043;-46
2022/12/03 01:05:12;;;;;;;51.10;21.52;;;;;;;5.09;100.00;96410.09;5064944;28;20409;-45
2022/12/03 01:07:40;;;;;;;56.20;23.38;;;;;;;5.65;100.00;96408.50;5060127;28;20080;-44
2022/12/03 01:10:11;;;;;;;50.05;21.50;;;;;;;6.09;100.00;96412.19;5065509;28;20095;-47
2022/12/03 01:12:40;;;;;;;64.80;22.83;;;;;;;5.84;100.00;96407.09;5062993;28;20091;-45
2022/12/03 01:15:09;;;;;;;66.55;24.95;;;;;;;5.75;100.00;96406.03;5062038;28;20087;-44
2022/12/03 01:17:37;;;;;;;56.65;22.80;;;;;;;5.75;100.00;96403.41;5064528;28;20106;-43
2022/12/03 01:20:08;;;;;;;61.35;24.00;;;;;;;5.28;100.00;96397.34;5063508;28;20581;-44
2022/12/03 01:22:36;;;;;;;71.82;25.08;;;;;;;4.67;100.00;96401.81;5061492;28;20088;-47
2022/12/03 01:25:05;;;;;;;48.78;19.35;;;;;;;4.87;100.00;96403.00;5062382;28;20092;-44
2022/12/03 01:27:35;;;;;;;50.55;18.10;;;;;;;4.55;100.00;96403.53;5061700;28;20122;-47
2022/12/03 01:30:04;;;;;;;42.30;18.50;;;;;;;4.79;100.00;96406.16;5062606;28;20076;-46
2022/12/03 01:32:31;;;;;;;45.05;17.42;;;;;;;4.51;100.00;96405.53;5062889;28;20095;-43
2022/12/03 01:34:59;;;;;;;43.80;17.80;;;;;;;4.61;100.00;96402.22;5058950;28;20523;-44
2022/12/03 01:37:28;;;;;;;50.53;18.92;;;;;;;4.60;100.00;96405.78;5062544;28;20088;-45
2022/12/03 01:39:56;;;;;;;55.20;21.40;;;;;;;4.78;100.00;96409.69;5060639;28;20079;-45
2022/12/03 01:42:27;;;;;;;58.38;21.42;;;;;;;4.74;100.00;96406.47;5063868;28;20095;-47
2022/12/03 01:44:58;;;;;;;38.13;17.88;;;;;;;4.78;100.00;96411.47;5063802;28;20076;-45
2022/12/03 01:47:27;;;;;;;;;;;;;;;4.82;100.00;96405.94;5065282;28;20076;-45
2022/12/03 01:49:59;;;;;;;53.10;21.20;;;;;;;4.75;100.00;96397.72;5061820;28;20372;-45
2022/12/03 01:52:30;;;;;;;46.35;17.33;;;;;;;4.57;100.00;96406.00;5064543;28;20073;-44
2022/12/03 01:55:00;;;;;;;37.15;16.80;;;;;;;4.24;100.00;96412.69;5063744;28;20087;-48
2022/12/03 01:57:39;;;;;;;49.15;21.00;;;;;;;4.44;100.00;96411.25;5065960;28;20524;-46
2022/12/03 02:00:13;;;;;;;53.08;18.17;;;;;;;4.61;100.00;96402.22;5064698;28;20068;-52
2022/12/03 02:02:42;;;;;;;37.58;16.55;;;;;;;4.21;100.00;96418.09;5064580;28;20484;-45
2022/12/03 02:05:16;;;;;;;45.25;17.77;;;;;;;4.51;100.00;96410.75;5060944;28;20079;-43
2022/12/03 02:07:45;;;;;;;47.40;18.02;;;;;;;4.71;100.00;96405.84;5061102;28;20076;-49
2022/12/03 02:10:15;;;;;;;41.22;18.05;;;;;;;4.57;100.00;96416.47;5056737;28;20080;-46
2022/12/03 02:12:47;;;;;;;39.72;16.85;;;;;;;4.63;100.00;96413.41;5061686;28;20445;-47
2022/12/03 02:15:16;;;;;;;39.85;17.27;;;;;;;4.47;100.00;96419.75;5061136;28;20465;-43
2022/12/03 02:17:45;;;;;;;41.20;18.25;;;;;;;4.44;100.00;96429.53;5059524;28;20048;-48
2022/12/03 02:20:14;;;;;;;43.00;17.63;;;;;;;4.56;100.00;96426.06;5056658;28;20539;-45
2022/12/03 02:22:46;;;;;;;42.38;18.67;;;;;;;4.48;100.00;96420.56;5060693;28;20083;-48
2022/12/03 02:25:18;;;;;;;44.28;17.63;;;;;;;4.61;100.00;96415.28;5060625;28;20504;-47
2022/12/03 02:27:47;;;;;;;44.17;19.95;;;;;;;4.26;100.00;96422.03;5057775;28;20076;-43
2022/12/03 02:30:17;;;;;;;37.15;16.75;;;;;;;4.18;100.00;96416.53;5063767;28;20083;-43
2022/12/03 02:32:46;;;;;;;46.03;17.95;;;;;;;4.44;100.00;96409.50;5063748;28;20068;-44
2022/12/03 02:35:16;;;;;;;48.75;18.80;;;;;;;4.42;100.00;96415.78;5058054;28;20084;-44
2022/12/03 02:37:46;;;;;;;46.53;19.35;;;;;;;4.26;100.00;96416.00;5061471;28;20073;-46
2022/12/03 02:40:18;;;;;;;41.17;18.67;;;;;;;4.73;100.00;96409.19;5062605;28;20481;-46
2022/12/03 02:42:47;;;;;;;39.33;17.20;;;;;;;4.39;100.00;96419.44;5061396;28;20084;-44
2022/12/03 02:45:17;;;;;;;44.15;18.73;;;;;;;4.22;100.00;96419.75;5062223;28;20088;-47
2022/12/03 02:47:47;;;;;;;43.58;19.48;;;;;;;4.30;100.00;96422.66;5065260;28;20084;-44
2022/12/03 02:50:18;;;;;;;44.90;18.55;;;;;;;4.19;100.00;96423.41;5063607;28;20068;-46
2022/12/03 02:52:46;;;;;;;35.47;16.77;;;;;;;4.35;100.00;96410.16;5065004;28;20080;-48
2022/12/03 02:55:17;;;;;;;49.83;20.52;;;;;;;4.57;100.00;96409.44;5063417;28;20077;-47
2022/12/03 02:57:47;;;;;;;47.03;19.52;;;;;;;4.58;100.00;96402.47;5067681;28;20088;-43
2022/12/03 03:00:17;;;;;;;41.95;18.73;;;;;;;4.43;100.00;96402.59;5062980;28;20072;-46
2022/12/03 03:02:46;;;;;;;43.57;18.63;;;;;;;4.47;100.00;96411.03;5061075;28;20550;-42
2022/12/03 03:05:15;;;;;;;45.97;19.58;;;;;;;4.35;100.00;96417.97;5067456;28;20084;-44
2022/12/03 03:07:43;;;;;;;40.70;19.38;;;;;;;4.85;100.00;96418.78;5065410;28;20460;-44
2022/12/03 03:10:14;;;;;;;44.00;18.33;;;;;;;4.83;100.00;96418.06;5064539;28;20091;-41
2022/12/03 03:12:44;;;;;;;40.78;18.10;;;;;;;4.88;100.00;96408.09;5065804;28;20076;-43
2022/12/03 03:15:13;;;;;;;41.43;16.87;;;;;;;4.62;100.00;96419.59;5066294;28;20053;-43
2022/12/03 03:17:42;;;;;;;43.45;18.48;;;;;;;4.46;100.00;96414.59;5068116;28;21083;-46
2022/12/03 03:20:11;;;;;;;33.97;15.80;;;;;;;4.48;100.00;96417.97;5060645;28;20808;-42
2022/12/03 03:22:41;;;;;;;40.17;18.10;;;;;;;4.30;100.00;96409.63;5065978;28;20080;-44
2022/12/03 03:25:12;;;;;;;38.72;18.15;;;;;;;4.96;100.00;96415.41;5066971;28;20087;-49
2022/12/03 03:27:41;;;;;;;37.88;18.02;;;;;;;4.64;100.00;96410.69;5062152;28;20146;-43
2022/12/03 03:30:12;;;;;;;38.03;16.73;;;;;;;4.68;100.00;96408.69;5065924;28;20103;-48
2022/12/03 03:32:41;;;;;;;43.75;18.65;;;;;;;4.72;100.00;96416.22;5061752;28;20064;-45
2022/12/03 03:35:10;;;;;;;48.40;20.05;;;;;;;4.85;100.00;96410.94;5063123;28;20087;-43
2022/12/03 03:37:38;;;;;;;41.80;18.63;;;;;;;5.35;100.00;96402.97;5061012;28;21962;-49
2022/12/03 03:40:08;;;;;;;51.47;21.25;;;;;;;4.89;100.00;96399.31;5065844;28;20094;-48
2022/12/03 03:42:38;;;;;;;46.97;20.60;;;;;;;4.90;100.00;96393.16;5064759;28;20094;-44
2022/12/03 03:45:07;;;;;;;45.47;18.63;;;;;;;4.55;100.00;96392.25;5059069;28;20045;-48
2022/12/03 03:47:37;;;;;;;50.72;17.88;;;;;;;5.16;100.00;96387.78;5061289;28;20085;-46
2022/12/03 03:50:07;;;;;;;48.10;21.03;;;;;;;5.04;100.00;96388.69;5063864;28;20099;-44
2022/12/03 03:52:36;;;;;;;45.75;20.52;;;;;;;4.78;100.00;96380.13;5060198;28;20499;-49
2022/12/03 03:55:05;;;;;;;49.65;22.73;;;;;;;4.61;100.00;96378.72;5062531;28;20091;-45
2022/12/03 03:57:34;;;;;;;49.10;20.48;;;;;;;5.06;100.00;96379.81;5064117;28;20770;-43
2022/12/03 04:00:04;;;;;;;53.53;21.08;;;;;;;4.17;100.00;96390.56;5067306;28;20083;-46
2022/12/03 04:02:33;;;;;;;47.30;19.88;;;;;;;4.85;100.00;96387.44;5063080;28;21031;-42
2022/12/03 04:05:03;;;;;;;39.95;17.85;;;;;;;4.72;100.00;96391.88;5064981;28;20071;-46
2022/12/03 04:07:32;;;;;;;42.38;18.05;;;;;;;4.05;100.00;96393.06;5065329;28;20076;-44
2022/12/03 04:12:54;;;;;;;45.15;20.00;;;;;;;4.49;100.00;96391.72;5065895;28;20087;-48
2022/12/03 04:12:56;;;;;;;38.40;16.65;;;;;;;4.71;100.00;96383.22;5060840;28;20461;-46
2022/12/03 04:15:25;;;;;;;30.58;15.13;;;;;;;4.19;100.00;96388.66;5061680;28;20087;-45
2022/12/03 04:20:41;;;;;;;44.47;19.83;;;;;;;4.49;100.00;96386.50;5044207;28;20083;-46
2022/12/03 04:23:09;;;;;;;55.38;22.25;;;;;;;4.81;100.00;96388.56;5062327;28;20065;-48
2022/12/03 04:36:52;;;;;;;49.95;19.02;;;;;;;4.70;100.00;96396.34;5062394;28;20076;-43
2022/12/03 04:39:21;;;;;;;45.17;20.07;;;;;;;4.61;100.00;96384.81;5063404;28;20072;-43
2022/12/03 04:41:49;;;;;;;48.67;20.75;;;;;;;4.46;100.00;96386.72;5061728;28;20634;-46
2022/12/03 04:44:34;;;;;;;45.15;18.75;;;;;;;4.86;100.00;96388.25;5062287;28;20076;-48
2022/12/03 04:47:06;;;;;;;49.83;22.15;;;;;;;4.93;100.00;96389.47;5061182;28;20465;-44
2022/12/03 04:49:35;;;;;;;39.65;18.48;;;;;;;4.52;100.00;96378.44;5060699;28;20079;-47
2022/12/03 04:52:05;;;;;;;49.80;20.48;;;;;;;4.40;100.00;96396.75;5061918;28;20080;-44
2022/12/03 04:54:34;;;;;;;30.50;13.50;;;;;;;4.33;100.00;96396.34;5060882;28;20076;-45
2022/12/03 04:57:03;;;;;;;46.85;21.13;;;;;;;4.23;100.00;96404.00;5063517;28;20162;-44
2022/12/03 04:59:31;;;;;;;41.95;18.15;;;;;;;4.96;100.00;96407.56;5064003;28;20471;-47
2022/12/03 05:01:59;;;;;;;42.33;17.98;;;;;;;4.65;100.00;96411.53;5056961;28;20067;-45
2022/12/03 05:04:28;;;;;;;46.30;19.17;;;;;;;4.80;100.00;96399.16;5059851;28;20083;-46
2022/12/03 05:06:56;;;;;;;45.47;20.75;;;;;;;4.42;100.00;96405.31;5063746;28;20570;-44
2022/12/03 05:09:26;;;;;;;46.05;18.83;;;;;;;4.96;100.00;96405.78;5062246;28;20469;-43
2022/12/03 05:11:54;;;;;;;44.67;21.27;;;;;;;4.73;100.00;96403.97;5064164;28;20084;-45
2022/12/03 05:14:23;;;;;;;32.10;15.68;;;;;;;4.45;100.00;96405.94;5065007;28;20510;-43
2022/12/03 05:16:51;;;;;;;48.50;21.27;;;;;;;4.71;100.00;96406.72;5059457;28;20071;-43
2022/12/03 05:19:19;;;;;;;44.80;19.08;;;;;;;4.69;100.00;96405.97;5079743;28;20079;-44
2022/12/03 05:21:46;;;;;;;39.63;17.00;;;;;;;4.78;100.00;96407.06;5064206;28;20096;-43
2022/12/03 05:24:15;;;;;;;39.10;18.00;;;;;;;4.88;100.00;96402.03;5065058;28;20075;-46
2022/12/03 05:26:44;;;;;;;36.92;16.98;;;;;;;4.61;100.00;96405.69;5059101;28;20072;-46
2022/12/03 05:29:13;;;;;;;35.57;16.50;;;;;;;5.07;100.00;96404.16;5061841;28;20076;-43
2022/12/03 05:31:41;;;;;;;34.95;15.93;;;;;;;5.12;100.00;96402.03;5058452;28;20588;-45
2022/12/03 05:34:09;;;;;;;37.67;16.25;;;;;;;5.15;100.00;96394.78;5063923;28;20076;-48
2022/12/03 05:36:38;;;;;;;36.83;16.45;;;;;;;5.08;100.00;96405.81;5061269;28;20057;-45
2022/12/03 05:39:06;;;;;;;41.97;17.45;;;;;;;4.94;100.00;96406.81;5059336;28;20075;-44
2022/12/03 05:44:22;;;;;;;37.13;17.55;;;;;;;5.15;100.00;96413.09;5061765;28;20495;-45
2022/12/03 05:46:50;;;;;;;42.42;17.33;;;;;;;5.47;100.00;96415.97;5061527;28;20475;-46
2022/12/03 05:49:19;;;;;;;24.58;12.07;;;;;;;4.97;100.00;96415.28;5061745;28;20134;-45
2022/12/03 05:51:47;;;;;;;36.05;16.08;;;;;;;5.07;100.00;96414.63;5061108;28;20080;-45
2022/12/03 05:54:18;;;;;;;37.22;16.83;;;;;;;5.08;100.00;96411.03;5061214;28;20068;-43
2022/12/03 05:56:46;;;;;;;42.42;18.58;;;;;;;4.71;100.00;96411.94;5060701;28;20511;-44
2022/12/03 05:59:15;;;;;;;40.92;18.40;;;;;;;4.89;100.00;96417.63;5060265;28;20071;-48
2022/12/03 06:01:44;;;;;;;35.88;15.63;;;;;;;4.90;100.00;96411.44;5059987;28;20076;-45
2022/12/03 06:04:13;;;;;;;44.38;19.20;;;;;;;4.58;100.00;96410.31;5063564;28;20440;-43
2022/12/03 06:06:41;;;;;;;37.53;15.85;;;;;;;5.03;100.00;96407.94;5060637;28;20068;-44
2022/12/03 06:09:09;;;;;;;41.60;18.08;;;;;;;5.51;100.00;96397.44;5060720;28;20624;-47
2022/12/03 06:11:39;;;;;;;44.40;19.75;;;;;;;5.20;100.00;96402.31;5063308;28;20500;-44
2022/12/03 06:14:07;;;;;;;46.67;20.50;;;;;;;4.93;100.00;96400.75;5059332;28;20087;-45
2022/12/03 06:16:36;;;;;;;46.25;20.95;;;;;;;4.88;100.00;96402.88;5061171;28;20072;-43
2022/12/03 06:19:05;;;;;;;46.10;18.67;;;;;;;5.24;100.00;96412.44;5059007;28;20060;-44
2022/12/03 06:21:33;;;;;;;27.88;12.70;;;;;;;4.83;100.00;96405.00;5060012;28;20076;-43
2022/12/03 06:24:02;;;;;;;43.50;20.38;;;;;;;4.70;100.00;96407.63;5064044;28;20084;-50
2022/12/03 06:26:30;;;;;;;42.85;18.70;;;;;;;4.96;100.00;96405.78;5065120;28;20499;-45
2022/12/03 06:28:58;;;;;;;37.30;16.48;;;;;;;4.72;100.00;96402.31;5064960;28;20084;-45
2022/12/03 06:31:27;;;;;;;45.15;18.95;;;;;;;4.83;100.00;96412.00;5069005;28;20080;-44
2022/12/03 06:33:55;;;;;;;50.63;19.60;;;;;;;5.26;100.00;96404.44;5067943;28;20084;-43
2022/12/03 06:36:26;;;;;;;44.00;19.10;;;;;;;5.20;100.00;96400.53;5068839;28;20084;-42
2022/12/03 06:38:54;;;;;;;47.50;19.92;;;;;;;4.91;100.00;96397.41;5067045;28;20122;-46
2022/12/03 06:41:23;;;;;;;43.38;17.77;;;;;;;5.35;100.00;96395.94;5067794;28;20088;-43
2022/12/03 06:43:51;;;;;;;42.78;20.15;;;;;;;5.61;100.00;96395.75;5069266;28;20084;-44
2022/12/03 06:46:19;;;;;;;45.13;18.52;;;;;;;5.51;100.00;96393.03;5068578;28;20095;-47
2022/12/03 06:48:48;;;;;;;46.38;18.88;;;;;;;4.99;100.00;96389.88;5067558;28;20091;-44
2022/12/03 06:51:16;;;;;;;40.30;17.92;;;;;;;5.47;100.00;96396.78;5066901;28;20072;-43
2022/12/03 06:53:45;;;;;;;39.65;17.30;;;;;;;5.00;100.00;96398.53;5068082;28;20084;-47
2022/12/03 06:56:14;;;;;;;45.60;18.80;;;;;;;5.58;100.00;96401.25;5068611;28;20084;-44
2022/12/03 06:58:48;;;;;;;33.92;14.73;;;;;;;5.25;100.00;96394.94;5066068;28;20087;-43
2022/12/03 07:01:16;;;;;;;41.08;16.98;;;;;;;5.31;100.00;96401.53;5067020;28;20088;-43
2022/12/03 07:03:45;;;;;;;41.28;17.77;;;;;;;5.34;100.00;96399.50;5064223;28;20081;-42
2022/12/03 07:06:13;;;;;;;39.88;17.90;;;;;;;5.23;100.00;96397.69;5066186;28;20080;-42
2022/12/03 07:08:42;;;;;;;41.88;19.25;;;;;;;4.87;100.00;96403.00;5068701;28;20072;-44
2022/12/03 07:13:53;;;;;;;46.83;19.75;;;;;;;5.27;100.00;96400.91;5070659;28;20080;-47
2022/12/03 07:16:26;;;;;;;39.42;19.75;;;;;;;5.21;100.00;96396.13;5068781;28;20532;-45
2022/12/03 07:18:55;;;;;;;42.70;18.35;;;;;;;5.43;100.00;96390.13;5065473;28;20095;-43
2022/12/03 07:21:24;;;;;;;40.75;16.85;;;;;;;5.45;100.00;96383.03;5064411;28;20091;-45
2022/12/03 07:23:52;;;;;;;34.13;16.75;;;;;;;5.19;100.00;96384.94;5070191;28;20091;-43
2022/12/03 07:26:22;;;;;;;38.92;18.58;;;;;;;4.88;100.00;96384.56;5068870;28;20076;-42
2022/12/03 07:28:50;;;;;;;39.80;18.97;;;;;;;4.96;100.00;96384.88;5068831;28;20099;-43
2022/12/03 07:31:18;;;;;;;38.47;18.75;;;;;;;4.70;100.00;96375.47;5066660;28;20076;-44
2022/12/03 07:33:46;;;;;;;32.88;15.75;;;;;;;4.44;100.00;96379.94;5068349;28;20076;-43
2022/12/03 07:36:15;;;;;;;35.05;15.40;;;;;;;4.79;100.00;96379.22;5068030;28;20076;-41
2022/12/03 07:38:43;;;;;;;35.60;15.65;;;;;;;4.85;100.00;96387.44;5065724;28;20076;-43
2022/12/03 07:41:11;;;;;;;40.80;19.02;;;;;;;4.92;100.00;96387.78;5069043;28;20091;-43
2022/12/03 07:43:41;;;;;;;33.35;18.15;;;;;;;4.80;100.00;96384.31;5067643;28;20095;-45
2022/12/03 07:46:09;;;;;;;36.53;15.90;;;;;;;4.76;100.00;96382.88;5064251;28;20541;-41
2022/12/03 07:48:38;;;;;;;39.72;18.60;;;;;;;4.73;100.00;96385.69;5063313;28;20676;-45
2022/12/03 07:51:06;;;;;;;38.00;16.52;;;;;;;4.93;100.00;96385.09;5064753;28;20485;-45
2022/12/03 07:53:37;;;;;;;39.85;18.58;;;;;;;5.17;100.00;96379.84;5062918;28;20433;-41
2022/12/03 07:56:06;;;;;;;39.67;17.20;;;;;;;4.61;100.00;96382.19;5068323;28;20092;-43
2022/12/03 07:58:34;;;;;;;42.20;20.08;;;;;;;5.04;100.00;96389.53;5067880;28;20080;-45
2022/12/03 08:01:04;;;;;;;39.60;20.02;;;;;;;4.84;100.00;96396.19;5063992;28;20090;-44
2022/12/03 08:03:33;;;;;;;35.72;17.80;;;;;;;4.63;100.00;96397.75;5066794;28;20483;-44
2022/12/03 08:06:01;;;;;;;37.47;18.35;;;;;;;5.23;100.00;96396.88;5067082;28;20084;-42
2022/12/03 08:08:29;;;;;;;36.65;15.82;;;;;;;5.22;100.00;96397.78;5062093;28;20088;-45
2022/12/03 08:10:58;;;;;;;44.85;18.40;;;;;;;4.87;100.00;96400.38;5068208;28;20072;-42
2022/12/03 08:13:27;;;;;;;36.03;16.35;;;;;;;5.10;100.00;96402.16;5061732;28;20095;-43
2022/12/03 08:15:56;;;;;;;30.83;14.32;;;;;;;4.89;100.00;96395.88;5070329;28;20558;-46
2022/12/03 08:18:27;;;;;;;36.22;17.85;;;;;;;5.04;100.00;96394.75;5067481;28;20094;-45
2022/12/03 08:20:55;;;;;;;41.03;19.38;;;;;;;4.90;100.00;96403.59;5066653;28;20067;-47
2022/12/03 08:23:25;;;;;;;38.97;18.13;;;;;;;4.88;100.00;96399.41;5067326;28;20707;-42
2022/12/03 08:25:53;;;;;;;40.58;20.17;;;;;;;4.95;100.00;96392.81;5063490;28;20076;-43
2022/12/03 08:28:24;;;;;;;39.83;18.83;;;;;;;4.86;100.00;96381.25;5065874;28;20080;-42
2022/12/03 08:30:59;;;;;;;34.80;17.25;;;;;;;5.09;100.00;96379.56;5062714;28;20072;-46
2022/12/03 08:33:32;;;;;;;27.92;13.43;;;;;;;5.04;100.00;96379.06;5064819;28;20076;-45
2022/12/03 08:36:01;;;;;;;35.72;17.05;;;;;;;5.40;100.00;96374.66;5066140;28;20080;-45
2022/12/03 08:38:30;;;;;;;38.47;20.48;;;;;;;5.20;100.00;96376.19;5065218;28;20077;-43
2022/12/03 08:40:58;;;;;;;36.42;18.83;;;;;;;5.07;100.00;96375.41;5063830;28;20464;-45
2022/12/03 08:43:28;;;;;;;27.60;13.68;;;;;;;4.95;100.00;96380.56;5062397;28;20080;-41
2022/12/03 08:45:57;;;;;;;32.07;16.77;;;;;;;4.79;100.00;96387.03;5062407;28;20087;-47
2022/12/03 08:48:31;;;;;;;36.55;20.65;;;;;;;4.80;100.00;96394.75;5064954;28;20075;-45
2022/12/03 08:51:02;;;;;;;27.83;15.10;;;;;;;4.69;100.00;96400.75;5059796;28;20094;-49
2022/12/03 08:53:33;;;;;;;34.95;20.52;;;;;;;4.61;100.00;96392.66;5064261;28;20091;-44
2022/12/03 08:56:04;;;;;;;36.30;16.23;;;;;;;4.89;100.00;96396.72;5064441;28;20072;-44
2022/12/03 08:58:38;;;;;;;33.63;17.38;;;;;;;5.11;100.00;96395.13;5066608;28;20102;-46
2022/12/03 09:01:29;;;;;;;34.10;16.65;;;;;;;5.48;100.00;96393.25;5065568;28;20483;-43
2022/12/03 09:04:14;;;;;;;35.88;20.15;;;;;;;5.45;100.00;96396.94;5065305;28;20084;-44
2022/12/03 09:06:42;;;;;;;37.17;18.60;;;;;;;5.34;100.00;96394.28;5063065;28;20453;-45
2022/12/03 09:09:11;;;;;;;34.97;17.73;;;;;;;5.12;100.00;96389.78;5067054;28;20064;-45
2022/12/03 09:11:39;;;;;;;37.58;17.90;;;;;;;5.15;100.00;96401.81;5062766;28;20535;-44
2022/12/03 09:14:07;;;;;;;33.20;16.98;;;;;;;5.31;100.00;96402.34;5065921;28;20068;-47
2022/12/03 09:16:42;;;;;;;35.28;18.20;;;;;;;5.26;100.00;96386.16;5064174;28;20072;-42
2022/12/03 09:19:11;;;;;;;33.38;17.85;;;;;;;5.27;100.00;96392.25;5064884;28;20539;-48
2022/12/03 09:21:40;;;;;;;18.75;10.13;;;;;;;4.68;100.00;96387.78;5067393;28;20103;-43
2022/12/03 09:24:08;;;;;;;36.88;18.50;;;;;;;5.07;100.00;96391.09;5067541;28;20086;-48
2022/12/03 09:26:37;;;;;;;30.67;15.93;;;;;;;5.10;100.00;96396.09;5062935;28;20044;-43
2022/12/03 09:29:05;;;;;;;32.45;16.23;;;;;;;5.01;100.00;96384.53;5066384;28;20087;-44
2022/12/03 09:31:39;;;;;;;34.88;16.48;;;;;;;5.94;100.00;96369.69;5059663;28;20084;-42
2022/12/03 09:34:08;;;;;;;33.88;16.67;;;;;;;5.88;100.00;96364.06;5061444;28;20064;-47
2022/12/03 09:36:38;;;;;;;32.95;17.40;;;;;;;5.82;100.00;96369.78;5063556;28;20075;-44
2022/12/03 09:39:06;;;;;;;36.77;19.00;;;;;;;5.74;100.00;96364.28;5058028;28;20742;-43
2022/12/03 09:41:35;;;;;;;35.63;16.20;;;;;;;5.57;100.00;96378.63;5061402;28;20510;-42
2022/12/03 09:44:03;;;;;;;31.35;16.40;;;;;;;5.87;100.00;96370.25;5064662;28;20083;-42
2022/12/03 09:46:48;;;;;;;33.15;15.55;;;;;;;5.76;100.00;96371.06;5038797;28;20048;-44
2022/12/03 09:49:17;;;;;;;29.77;16.08;;;;;;;5.78;100.00;96368.31;5063283;28;20716;-46
2022/12/03 09:51:47;;;;;;;28.73;14.13;;;;;;;5.29;100.00;96366.81;5063682;28;20091;-48
2022/12/03 09:54:22;;;;;;;32.28;16.02;;;;;;;5.44;100.00;96373.50;5059847;28;20099;-45
2022/12/03 09:56:51;;;;;;;34.72;17.70;;;;;;;5.65;100.00;96368.44;5060645;28;20528;-44
2022/12/03 09:59:21;;;;;;;32.55;16.40;;;;;;;5.23;100.00;96371.56;5064503;28;20080;-46
2022/12/03 10:01:49;;;;;;;32.20;16.38;;;;;;;5.53;100.00;96370.19;5061972;28;20084;-42
2022/12/03 10:04:19;;;;;;;29.77;15.55;;;;;;;5.17;100.00;96372.00;5066481;28;20080;-48
2022/12/03 10:06:49;;;;;;;35.83;17.63;;;;;;;5.63;100.00;96359.88;5058355;28;20087;-45
2022/12/03 10:09:22;;;;;;;28.85;14.90;;;;;;;5.34;100.00;96362.91;5064890;28;20080;-45
2022/12/03 10:11:50;;;;;;;28.80;14.57;;;;;;;5.40;100.00;96356.38;5060348;28;20084;-46
2022/12/03 10:14:19;;;;;;;32.15;16.08;;;;;;;5.83;100.00;96348.72;5062955;28;20087;-45
2022/12/03 10:16:47;;;;;;;39.58;18.58;;;;;;;5.85;100.00;96340.72;5058478;28;20139;-46
2022/12/03 10:19:19;;;;;;;30.60;15.80;;;;;;;5.91;100.00;96342.88;5061248;28;20083;-45
2022/12/03 10:21:49;;;;;;;34.10;17.08;;;;;;;6.08;100.00;96338.97;5063917;28;20080;-44
2022/12/03 10:24:24;;;;;;;33.40;18.02;;;;;;;5.30;100.00;96340.56;5064550;28;20080;-42
2022/12/03 10:26:54;;;;;;;26.33;14.48;;;;;;;5.82;100.00;96326.13;5061739;28;20072;-42
2022/12/03 10:29:24;;;;;;;31.30;16.83;;;;;;;5.66;100.00;96330.88;5056712;28;20080;-46
2022/12/03 10:32:02;;;;;;;29.83;15.40;;;;;;;5.80;100.00;96328.00;5062241;28;20095;-43
2022/12/03 10:34:32;;;;;;;32.22;17.42;;;;;;;5.36;100.00;96320.94;5065070;28;20084;-45
2022/12/03 10:37:17;;;;;;;25.80;14.32;;;;;;;5.40;100.00;96324.97;5062666;28;20106;-42
2022/12/03 10:39:57;;;;;;;30.83;14.88;;;;;;;5.24;100.00;96327.94;5059628;28;20516;-48
2022/12/03 10:42:26;;;;;;;27.67;14.93;;;;;;;5.62;100.00;96311.13;5061177;28;20075;-41
2022/12/03 10:45:11;;;;;;;32.45;16.38;;;;;;;5.54;100.00;96314.34;5063962;28;20828;-42
2022/12/03 10:47:39;;;;;;;46.20;22.63;;;;;;;5.78;100.00;96309.00;5062425;28;20624;-43
2022/12/03 10:50:15;;;;;;;34.13;18.73;;;;;;;5.89;100.00;96309.00;5063273;28;20076;-42
2022/12/03 10:52:45;;;;;;;29.75;16.27;;;;;;;5.85;100.00;96302.34;5062380;28;20076;-41
2022/12/03 10:55:15;;;;;;;29.80;16.70;;;;;;;5.86;100.00;96305.78;5063017;28;20087;-41
2022/12/03 10:57:43;;;;;;;31.83;16.58;;;;;;;5.92;100.00;96298.31;5063069;28;20111;-45
2022/12/03 11:00:16;;;;;;;33.80;17.30;;;;;;;6.02;100.00;96293.19;5060468;28;20087;-45
2022/12/03 11:02:45;;;;;;;32.75;17.17;;;;;;;6.16;100.00;96294.72;5060804;28;20083;-44
2022/12/03 11:05:25;;;;;;;35.00;16.35;;;;;;;6.09;100.00;96298.75;5059568;28;20084;-43
2022/12/03 11:07:55;;;;;;;36.42;19.67;;;;;;;6.32;100.00;96287.28;5063926;28;20088;-42
2022/12/03 11:10:24;;;;;;;41.03;19.63;;;;;;;6.03;100.00;96291.41;5065335;28;20044;-47
2022/12/03 11:13:27;;;;;;;30.60;17.00;;;;;;;5.81;100.00;96294.81;5065259;28;20121;-44
2022/12/03 11:15:55;;;;;;;28.10;15.25;;;;;;;5.82;100.00;96288.66;5066377;28;20083;-46
2022/12/03 11:18:59;;;;;;;35.63;17.95;;;;;;;5.49;100.00;96287.69;5065877;28;20091;-43
2022/12/03 11:21:27;;;;;;;29.90;16.75;;;;;;;5.66;100.00;96291.63;5062428;28;20087;-46
2022/12/03 11:24:05;;;;;;;30.95;16.20;;;;;;;5.93;100.00;96283.44;5064742;28;20088;-41
2022/12/03 11:27:25;;;;;;;28.45;14.73;;;;;;;5.68;100.00;96276.66;5065369;28;20484;-41
2022/12/03 11:30:01;;;;;;;39.42;20.75;;;;;;;5.99;100.00;96282.97;5066214;28;20084;-43
2022/12/03 11:33:08;;;;;;;32.28;17.10;;;;;;;6.27;100.00;96291.25;5061475;28;20079;-45
2022/12/03 11:36:01;;;;;;;26.60;15.65;;;;;;;6.00;100.00;96283.78;5064457;28;20084;-44
2022/12/03 11:38:44;;;;;;;24.20;13.80;;;;;;;6.12;100.00;96286.25;5061753;28;20083;-48
2022/12/03 11:41:26;;;;;;;29.40;15.95;;;;;;;5.79;100.00;96286.28;5066024;28;20088;-45
2022/12/03 11:44:27;;;;;;;28.40;15.38;;;;;;;6.10;100.00;96292.59;5064519;28;20087;-48
2022/12/03 11:47:00;;;;;;;31.70;18.25;;;;;;;5.94;100.00;96288.53;5066476;28;20084;-47
2022/12/03 11:49:36;;;;;;;32.03;20.23;;;;;;;5.62;100.00;96288.41;5062927;28;20098;-41
2022/12/03 11:52:19;;;;;;;31.10;16.52;;;;;;;5.93;100.00;96286.06;5065686;28;20558;-42